sensor_id;sensor_type;location;lat;lon;timestamp;temperature;humidity
55711;DHT22;41612;51.994;5.880;2023-02-18T00:01:19;10.60;86.60
55711;DHT22;41612;51.994;5.880;2023-02-18T00:03:46;10.60;86.70
55711;DHT22;41612;51.994;5.880;2023-02-18T00:06:23;10.60;86.80
55711;DHT22;41612;51.994;5.880;2023-02-18T00:08:50;10.60;86.30
55711;DHT22;41612;51.994;5.880;2023-02-18T00:11:16;10.60;86.20
55711;DHT22;41612;51.994;5.880;2023-02-18T00:13:42;10.60;86.40
55711;DHT22;41612;51.994;5.880;2023-02-18T00:16:10;10.60;86.30
55711;DHT22;41612;51.994;5.880;2023-02-18T00:18:37;10.60;86.50
55711;DHT22;41612;51.994;5.880;2023-02-18T00:21:07;10.60;86.80
55711;DHT22;41612;51.994;5.880;2023-02-18T00:23:33;10.50;87.10
55711;DHT22;41612;51.994;5.880;2023-02-18T00:26:03;10.50;86.60
55711;DHT22;41612;51.994;5.880;2023-02-18T00:28:30;10.50;86.50
55711;DHT22;41612;51.994;5.880;2023-02-18T00:30:56;10.50;86.20
55711;DHT22;41612;51.994;5.880;2023-02-18T00:33:22;10.50;86.00
55711;DHT22;41612;51.994;5.880;2023-02-18T00:35:51;10.50;86.20
55711;DHT22;41612;51.994;5.880;2023-02-18T00:38:17;10.40;86.90
55711;DHT22;41612;51.994;5.880;2023-02-18T00:40:43;10.30;87.30
55711;DHT22;41612;51.994;5.880;2023-02-18T00:43:09;10.30;86.90
55711;DHT22;41612;51.994;5.880;2023-02-18T00:45:35;10.30;87.40
55711;DHT22;41612;51.994;5.880;2023-02-18T00:48:02;10.30;87.80
55711;DHT22;41612;51.994;5.880;2023-02-18T00:50:31;10.30;87.90
55711;DHT22;41612;51.994;5.880;2023-02-18T00:52:57;10.30;87.80
55711;DHT22;41612;51.994;5.880;2023-02-18T00:55:23;10.30;87.60
55711;DHT22;41612;51.994;5.880;2023-02-18T00:57:48;10.30;87.20
55711;DHT22;41612;51.994;5.880;2023-02-18T01:00:15;10.40;86.80
55711;DHT22;41612;51.994;5.880;2023-02-18T01:02:40;10.40;86.80
55711;DHT22;41612;51.994;5.880;2023-02-18T01:05:06;10.40;86.50
55711;DHT22;41612;51.994;5.880;2023-02-18T01:07:32;10.30;86.90
55711;DHT22;41612;51.994;5.880;2023-02-18T01:09:58;10.40;86.60
55711;DHT22;41612;51.994;5.880;2023-02-18T01:12:23;10.40;86.20
55711;DHT22;41612;51.994;5.880;2023-02-18T01:14:49;10.40;86.10
55711;DHT22;41612;51.994;5.880;2023-02-18T01:17:15;10.40;86.60
55711;DHT22;41612;51.994;5.880;2023-02-18T01:19:41;10.40;87.00
55711;DHT22;41612;51.994;5.880;2023-02-18T01:22:07;10.40;87.10
55711;DHT22;41612;51.994;5.880;2023-02-18T01:24:33;10.40;87.20
55711;DHT22;41612;51.994;5.880;2023-02-18T01:26:59;10.30;86.90
55711;DHT22;41612;51.994;5.880;2023-02-18T01:29:25;10.30;87.00
55711;DHT22;41612;51.994;5.880;2023-02-18T01:31:52;10.40;86.00
55711;DHT22;41612;51.994;5.880;2023-02-18T01:34:18;10.40;86.10
55711;DHT22;41612;51.994;5.880;2023-02-18T01:36:44;10.50;86.00
55711;DHT22;41612;51.994;5.880;2023-02-18T01:39:10;10.50;86.20
55711;DHT22;41612;51.994;5.880;2023-02-18T01:41:38;10.50;85.20
55711;DHT22;41612;51.994;5.880;2023-02-18T01:44:17;10.50;85.20
55711;DHT22;41612;51.994;5.880;2023-02-18T01:46:44;10.60;85.60
55711;DHT22;41612;51.994;5.880;2023-02-18T01:49:14;10.60;85.30
55711;DHT22;41612;51.994;5.880;2023-02-18T01:51:51;10.60;85.60
55711;DHT22;41612;51.994;5.880;2023-02-18T01:54:26;10.60;85.70
55711;DHT22;41612;51.994;5.880;2023-02-18T01:56:59;10.50;86.10
55711;DHT22;41612;51.994;5.880;2023-02-18T01:59:40;10.60;86.10
55711;DHT22;41612;51.994;5.880;2023-02-18T02:02:10;10.50;85.80
55711;DHT22;41612;51.994;5.880;2023-02-18T02:04:36;10.60;85.90
55711;DHT22;41612;51.994;5.880;2023-02-18T02:07:02;10.60;85.50
55711;DHT22;41612;51.994;5.880;2023-02-18T02:09:30;10.60;86.00
55711;DHT22;41612;51.994;5.880;2023-02-18T02:12:32;10.50;86.10
55711;DHT22;41612;51.994;5.880;2023-02-18T02:23:22;10.50;87.40
55711;DHT22;41612;51.994;5.880;2023-02-18T02:28:58;10.40;87.40
55711;DHT22;41612;51.994;5.880;2023-02-18T02:34:36;10.40;87.40
55711;DHT22;41612;51.994;5.880;2023-02-18T02:40:08;10.30;87.20
55711;DHT22;41612;51.994;5.880;2023-02-18T02:42:51;10.30;87.60
55711;DHT22;41612;51.994;5.880;2023-02-18T02:45:23;10.30;88.20
55711;DHT22;41612;51.994;5.880;2023-02-18T02:48:28;10.30;88.20
55711;DHT22;41612;51.994;5.880;2023-02-18T02:53:29;10.30;88.50
55711;DHT22;41612;51.994;5.880;2023-02-18T02:55:56;10.30;87.70
55711;DHT22;41612;51.994;5.880;2023-02-18T02:58:23;10.40;87.80
55711;DHT22;41612;51.994;5.880;2023-02-18T03:12:41;10.40;88.70
55711;DHT22;41612;51.994;5.880;2023-02-18T03:18:07;10.50;89.00
55711;DHT22;41612;51.994;5.880;2023-02-18T03:20:42;10.50;89.40
55711;DHT22;41612;51.994;5.880;2023-02-18T03:23:15;10.50;89.50
55711;DHT22;41612;51.994;5.880;2023-02-18T03:25:43;10.50;89.50
55711;DHT22;41612;51.994;5.880;2023-02-18T03:28:16;10.50;89.80
55711;DHT22;41612;51.994;5.880;2023-02-18T03:31:06;10.50;89.50
55711;DHT22;41612;51.994;5.880;2023-02-18T03:33:42;10.50;89.10
55711;DHT22;41612;51.994;5.880;2023-02-18T03:36:09;10.50;88.30
55711;DHT22;41612;51.994;5.880;2023-02-18T03:38:39;10.50;89.10
55711;DHT22;41612;51.994;5.880;2023-02-18T03:41:07;10.50;89.30
55711;DHT22;41612;51.994;5.880;2023-02-18T03:43:34;10.50;88.50
55711;DHT22;41612;51.994;5.880;2023-02-18T03:46:00;10.60;89.20
55711;DHT22;41612;51.994;5.880;2023-02-18T03:48:27;10.60;89.70
55711;DHT22;41612;51.994;5.880;2023-02-18T03:50:52;10.60;89.50
55711;DHT22;41612;51.994;5.880;2023-02-18T03:53:18;10.60;89.30
55711;DHT22;41612;51.994;5.880;2023-02-18T03:55:44;10.60;89.30
55711;DHT22;41612;51.994;5.880;2023-02-18T03:58:10;10.60;89.60
55711;DHT22;41612;51.994;5.880;2023-02-18T04:00:35;10.70;89.80
55711;DHT22;41612;51.994;5.880;2023-02-18T04:03:01;10.70;89.70
55711;DHT22;41612;51.994;5.880;2023-02-18T04:05:27;10.70;89.50
55711;DHT22;41612;51.994;5.880;2023-02-18T04:07:53;10.70;89.60
55711;DHT22;41612;51.994;5.880;2023-02-18T04:10:19;10.60;89.10
55711;DHT22;41612;51.994;5.880;2023-02-18T04:12:46;10.60;89.40
55711;DHT22;41612;51.994;5.880;2023-02-18T04:15:11;10.60;89.60
55711;DHT22;41612;51.994;5.880;2023-02-18T04:17:38;10.70;89.70
55711;DHT22;41612;51.994;5.880;2023-02-18T04:20:04;10.70;89.70
55711;DHT22;41612;51.994;5.880;2023-02-18T04:22:30;10.60;89.90
55711;DHT22;41612;51.994;5.880;2023-02-18T04:24:56;10.70;90.00
55711;DHT22;41612;51.994;5.880;2023-02-18T04:27:23;10.70;88.90
55711;DHT22;41612;51.994;5.880;2023-02-18T04:29:49;10.70;89.20
55711;DHT22;41612;51.994;5.880;2023-02-18T04:32:15;10.70;89.40
55711;DHT22;41612;51.994;5.880;2023-02-18T04:34:41;10.70;89.70
55711;DHT22;41612;51.994;5.880;2023-02-18T04:37:07;10.70;89.90
55711;DHT22;41612;51.994;5.880;2023-02-18T04:39:33;10.70;89.70
55711;DHT22;41612;51.994;5.880;2023-02-18T04:41:58;10.70;90.20
55711;DHT22;41612;51.994;5.880;2023-02-18T04:44:24;10.70;90.10
55711;DHT22;41612;51.994;5.880;2023-02-18T04:46:50;10.70;90.10
55711;DHT22;41612;51.994;5.880;2023-02-18T04:49:16;10.70;90.20
55711;DHT22;41612;51.994;5.880;2023-02-18T04:51:41;10.70;90.10
55711;DHT22;41612;51.994;5.880;2023-02-18T04:54:07;10.70;90.40
55711;DHT22;41612;51.994;5.880;2023-02-18T04:56:33;10.70;90.40
55711;DHT22;41612;51.994;5.880;2023-02-18T04:58:58;10.70;90.50
55711;DHT22;41612;51.994;5.880;2023-02-18T05:01:24;10.70;90.50
55711;DHT22;41612;51.994;5.880;2023-02-18T05:03:50;10.60;90.20
55711;DHT22;41612;51.994;5.880;2023-02-18T05:06:15;10.70;90.10
55711;DHT22;41612;51.994;5.880;2023-02-18T05:08:44;10.70;89.50
55711;DHT22;41612;51.994;5.880;2023-02-18T05:11:09;10.60;90.40
55711;DHT22;41612;51.994;5.880;2023-02-18T05:13:35;10.60;90.00
55711;DHT22;41612;51.994;5.880;2023-02-18T05:16:01;10.60;89.90
55711;DHT22;41612;51.994;5.880;2023-02-18T05:18:26;10.60;90.60
55711;DHT22;41612;51.994;5.880;2023-02-18T05:20:52;10.60;90.30
55711;DHT22;41612;51.994;5.880;2023-02-18T05:23:18;10.60;90.00
55711;DHT22;41612;51.994;5.880;2023-02-18T05:25:46;10.60;90.20
55711;DHT22;41612;51.994;5.880;2023-02-18T05:28:15;10.60;90.80
55711;DHT22;41612;51.994;5.880;2023-02-18T05:30:41;10.60;90.70
55711;DHT22;41612;51.994;5.880;2023-02-18T05:33:07;10.60;90.20
55711;DHT22;41612;51.994;5.880;2023-02-18T05:35:33;10.60;89.70
55711;DHT22;41612;51.994;5.880;2023-02-18T05:37:58;10.60;90.00
55711;DHT22;41612;51.994;5.880;2023-02-18T05:40:24;10.70;89.80
55711;DHT22;41612;51.994;5.880;2023-02-18T05:42:50;10.70;90.00
55711;DHT22;41612;51.994;5.880;2023-02-18T05:45:16;10.60;89.40
55711;DHT22;41612;51.994;5.880;2023-02-18T05:47:41;10.60;90.20
55711;DHT22;41612;51.994;5.880;2023-02-18T05:50:09;10.60;89.10
55711;DHT22;41612;51.994;5.880;2023-02-18T05:52:35;10.60;89.80
55711;DHT22;41612;51.994;5.880;2023-02-18T05:55:03;10.60;90.10
55711;DHT22;41612;51.994;5.880;2023-02-18T05:57:29;10.60;89.70
55711;DHT22;41612;51.994;5.880;2023-02-18T05:59:55;10.60;89.90
55711;DHT22;41612;51.994;5.880;2023-02-18T06:02:24;10.60;90.10
55711;DHT22;41612;51.994;5.880;2023-02-18T06:04:50;10.60;90.20
55711;DHT22;41612;51.994;5.880;2023-02-18T06:07:15;10.50;90.40
55711;DHT22;41612;51.994;5.880;2023-02-18T06:09:41;10.50;90.20
55711;DHT22;41612;51.994;5.880;2023-02-18T06:12:07;10.50;90.20
55711;DHT22;41612;51.994;5.880;2023-02-18T06:14:33;10.50;89.70
55711;DHT22;41612;51.994;5.880;2023-02-18T06:16:58;10.60;89.10
55711;DHT22;41612;51.994;5.880;2023-02-18T06:19:24;10.50;90.00
55711;DHT22;41612;51.994;5.880;2023-02-18T06:21:50;10.50;89.60
55711;DHT22;41612;51.994;5.880;2023-02-18T06:24:16;10.50;89.00
55711;DHT22;41612;51.994;5.880;2023-02-18T06:26:42;10.50;89.20
55711;DHT22;41612;51.994;5.880;2023-02-18T06:29:08;10.50;88.80
55711;DHT22;41612;51.994;5.880;2023-02-18T06:31:33;10.50;89.00
55711;DHT22;41612;51.994;5.880;2023-02-18T06:34:04;10.50;89.60
55711;DHT22;41612;51.994;5.880;2023-02-18T06:36:30;10.50;89.40
55711;DHT22;41612;51.994;5.880;2023-02-18T06:38:55;10.50;89.10
55711;DHT22;41612;51.994;5.880;2023-02-18T06:41:22;10.50;88.80
55711;DHT22;41612;51.994;5.880;2023-02-18T06:43:50;10.50;89.60
55711;DHT22;41612;51.994;5.880;2023-02-18T06:46:19;10.40;89.00
55711;DHT22;41612;51.994;5.880;2023-02-18T06:48:45;10.50;89.40
55711;DHT22;41612;51.994;5.880;2023-02-18T06:51:10;10.40;89.30
55711;DHT22;41612;51.994;5.880;2023-02-18T06:53:36;10.40;89.40
55711;DHT22;41612;51.994;5.880;2023-02-18T06:56:02;10.40;88.40
55711;DHT22;41612;51.994;5.880;2023-02-18T06:58:28;10.50;89.50
55711;DHT22;41612;51.994;5.880;2023-02-18T07:00:54;10.40;89.60
55711;DHT22;41612;51.994;5.880;2023-02-18T07:03:20;10.40;89.50
55711;DHT22;41612;51.994;5.880;2023-02-18T07:05:48;10.40;89.70
55711;DHT22;41612;51.994;5.880;2023-02-18T07:08:14;10.40;89.60
55711;DHT22;41612;51.994;5.880;2023-02-18T07:10:40;10.30;89.70
55711;DHT22;41612;51.994;5.880;2023-02-18T07:13:06;10.30;90.10
55711;DHT22;41612;51.994;5.880;2023-02-18T07:15:31;10.40;89.90
55711;DHT22;41612;51.994;5.880;2023-02-18T07:17:57;10.30;90.00
55711;DHT22;41612;51.994;5.880;2023-02-18T07:20:23;10.30;89.30
55711;DHT22;41612;51.994;5.880;2023-02-18T07:22:50;10.30;89.60
55711;DHT22;41612;51.994;5.880;2023-02-18T07:25:16;10.40;89.60
55711;DHT22;41612;51.994;5.880;2023-02-18T07:27:42;10.30;89.10
55711;DHT22;41612;51.994;5.880;2023-02-18T07:30:08;10.30;88.90
55711;DHT22;41612;51.994;5.880;2023-02-18T07:32:34;10.30;89.30
55711;DHT22;41612;51.994;5.880;2023-02-18T07:35:00;10.30;89.50
55711;DHT22;41612;51.994;5.880;2023-02-18T07:37:25;10.30;89.00
55711;DHT22;41612;51.994;5.880;2023-02-18T07:39:51;10.30;88.50
55711;DHT22;41612;51.994;5.880;2023-02-18T07:42:17;10.30;88.20
55711;DHT22;41612;51.994;5.880;2023-02-18T07:44:43;10.30;88.80
55711;DHT22;41612;51.994;5.880;2023-02-18T07:47:13;10.30;88.70
55711;DHT22;41612;51.994;5.880;2023-02-18T07:49:39;10.30;88.40
55711;DHT22;41612;51.994;5.880;2023-02-18T07:52:05;10.30;89.30
55711;DHT22;41612;51.994;5.880;2023-02-18T07:54:30;10.20;88.50
55711;DHT22;41612;51.994;5.880;2023-02-18T07:56:59;10.20;88.20
55711;DHT22;41612;51.994;5.880;2023-02-18T07:59:25;10.30;88.80
55711;DHT22;41612;51.994;5.880;2023-02-18T08:01:50;10.30;88.80
55711;DHT22;41612;51.994;5.880;2023-02-18T08:04:16;10.30;89.10
55711;DHT22;41612;51.994;5.880;2023-02-18T08:06:44;10.20;89.10
55711;DHT22;41612;51.994;5.880;2023-02-18T08:09:11;10.10;89.30
55711;DHT22;41612;51.994;5.880;2023-02-18T08:11:37;10.10;89.30
55711;DHT22;41612;51.994;5.880;2023-02-18T08:14:03;10.00;89.40
55711;DHT22;41612;51.994;5.880;2023-02-18T08:16:29;10.10;89.00
55711;DHT22;41612;51.994;5.880;2023-02-18T08:18:55;10.10;89.10
55711;DHT22;41612;51.994;5.880;2023-02-18T08:21:23;10.00;89.10
55711;DHT22;41612;51.994;5.880;2023-02-18T08:23:49;10.10;88.60
55711;DHT22;41612;51.994;5.880;2023-02-18T08:26:15;10.00;89.00
55711;DHT22;41612;51.994;5.880;2023-02-18T08:28:42;10.00;88.80
55711;DHT22;41612;51.994;5.880;2023-02-18T08:31:15;10.10;88.20
55711;DHT22;41612;51.994;5.880;2023-02-18T08:33:41;10.00;88.50
55711;DHT22;41612;51.994;5.880;2023-02-18T08:36:07;10.00;88.30
55711;DHT22;41612;51.994;5.880;2023-02-18T08:38:35;10.00;88.10
55711;DHT22;41612;51.994;5.880;2023-02-18T08:41:07;10.00;88.10
55711;DHT22;41612;51.994;5.880;2023-02-18T08:43:33;10.00;87.90
55711;DHT22;41612;51.994;5.880;2023-02-18T08:45:59;10.00;88.30
55711;DHT22;41612;51.994;5.880;2023-02-18T08:48:25;9.90;88.20
55711;DHT22;41612;51.994;5.880;2023-02-18T08:50:51;9.90;88.50
55711;DHT22;41612;51.994;5.880;2023-02-18T08:53:17;9.90;88.30
55711;DHT22;41612;51.994;5.880;2023-02-18T08:55:43;9.90;88.40
55711;DHT22;41612;51.994;5.880;2023-02-18T08:58:09;9.90;88.60
55711;DHT22;41612;51.994;5.880;2023-02-18T09:00:36;9.90;88.40
55711;DHT22;41612;51.994;5.880;2023-02-18T09:03:02;9.90;88.10
55711;DHT22;41612;51.994;5.880;2023-02-18T09:05:28;9.90;87.90
55711;DHT22;41612;51.994;5.880;2023-02-18T09:07:54;9.80;88.20
55711;DHT22;41612;51.994;5.880;2023-02-18T09:10:19;9.80;88.10
55711;DHT22;41612;51.994;5.880;2023-02-18T09:12:45;9.80;88.70
55711;DHT22;41612;51.994;5.880;2023-02-18T09:15:11;9.80;88.50
55711;DHT22;41612;51.994;5.880;2023-02-18T09:17:39;9.80;88.30
55711;DHT22;41612;51.994;5.880;2023-02-18T09:20:06;9.80;88.40
55711;DHT22;41612;51.994;5.880;2023-02-18T09:22:31;9.70;89.00
55711;DHT22;41612;51.994;5.880;2023-02-18T09:25:01;9.70;88.80
55711;DHT22;41612;51.994;5.880;2023-02-18T09:27:27;9.60;88.80
55711;DHT22;41612;51.994;5.880;2023-02-18T09:29:53;9.60;89.20
55711;DHT22;41612;51.994;5.880;2023-02-18T09:32:19;9.60;89.40
55711;DHT22;41612;51.994;5.880;2023-02-18T09:34:45;9.50;89.50
55711;DHT22;41612;51.994;5.880;2023-02-18T09:37:11;9.50;89.70
55711;DHT22;41612;51.994;5.880;2023-02-18T09:39:37;9.50;89.90
55711;DHT22;41612;51.994;5.880;2023-02-18T09:42:09;9.50;89.90
55711;DHT22;41612;51.994;5.880;2023-02-18T09:44:38;9.60;89.70
55711;DHT22;41612;51.994;5.880;2023-02-18T09:47:24;9.60;89.60
55711;DHT22;41612;51.994;5.880;2023-02-18T09:50:03;9.60;89.50
55711;DHT22;41612;51.994;5.880;2023-02-18T09:52:34;9.70;89.40
55711;DHT22;41612;51.994;5.880;2023-02-18T09:55:35;9.70;88.90
55711;DHT22;41612;51.994;5.880;2023-02-18T09:58:12;9.70;88.40
55711;DHT22;41612;51.994;5.880;2023-02-18T10:00:41;9.70;88.90
55711;DHT22;41612;51.994;5.880;2023-02-18T10:03:14;9.70;89.20
55711;DHT22;41612;51.994;5.880;2023-02-18T10:05:56;9.70;89.30
55711;DHT22;41612;51.994;5.880;2023-02-18T10:08:39;9.70;89.30
55711;DHT22;41612;51.994;5.880;2023-02-18T10:11:55;9.70;89.10
55711;DHT22;41612;51.994;5.880;2023-02-18T10:14:01;9.70;89.20
55711;DHT22;41612;51.994;5.880;2023-02-18T10:16:29;9.70;89.10
55711;DHT22;41612;51.994;5.880;2023-02-18T10:18:57;9.70;89.10
55711;DHT22;41612;51.994;5.880;2023-02-18T10:21:32;9.70;88.80
55711;DHT22;41612;51.994;5.880;2023-02-18T10:24:05;9.70;88.70
55711;DHT22;41612;51.994;5.880;2023-02-18T10:26:35;9.80;88.70
55711;DHT22;41612;51.994;5.880;2023-02-18T10:29:02;9.80;87.90
55711;DHT22;41612;51.994;5.880;2023-02-18T10:31:35;9.80;87.70
55711;DHT22;41612;51.994;5.880;2023-02-18T10:37:03;9.80;88.30
55711;DHT22;41612;51.994;5.880;2023-02-18T10:48:07;9.80;88.60
55711;DHT22;41612;51.994;5.880;2023-02-18T10:50:37;9.90;88.10
55711;DHT22;41612;51.994;5.880;2023-02-18T10:53:17;9.90;88.50
55711;DHT22;41612;51.994;5.880;2023-02-18T10:55:45;9.90;88.20
55711;DHT22;41612;51.994;5.880;2023-02-18T10:58:34;9.90;88.40
55711;DHT22;41612;51.994;5.880;2023-02-18T11:01:04;9.80;88.80
55711;DHT22;41612;51.994;5.880;2023-02-18T11:03:43;9.80;89.00
55711;DHT22;41612;51.994;5.880;2023-02-18T11:06:37;9.80;88.70
55711;DHT22;41612;51.994;5.880;2023-02-18T11:09:03;9.90;88.30
55711;DHT22;41612;51.994;5.880;2023-02-18T11:11:36;9.80;88.80
55711;DHT22;41612;51.994;5.880;2023-02-18T11:14:05;9.90;88.90
55711;DHT22;41612;51.994;5.880;2023-02-18T11:16:44;9.90;88.50
55711;DHT22;41612;51.994;5.880;2023-02-18T11:19:33;9.90;88.50
55711;DHT22;41612;51.994;5.880;2023-02-18T11:22:30;10.00;88.40
55711;DHT22;41612;51.994;5.880;2023-02-18T11:25:02;10.00;88.40
55711;DHT22;41612;51.994;5.880;2023-02-18T11:27:41;10.00;88.70
55711;DHT22;41612;51.994;5.880;2023-02-18T11:30:24;10.00;88.30
55711;DHT22;41612;51.994;5.880;2023-02-18T11:32:59;10.10;87.30
55711;DHT22;41612;51.994;5.880;2023-02-18T11:35:29;10.20;87.60
55711;DHT22;41612;51.994;5.880;2023-02-18T11:37:58;10.20;87.70
55711;DHT22;41612;51.994;5.880;2023-02-18T11:40:29;10.20;87.60
55711;DHT22;41612;51.994;5.880;2023-02-18T11:43:06;10.20;87.70
55711;DHT22;41612;51.994;5.880;2023-02-18T11:45:35;10.20;87.70
55711;DHT22;41612;51.994;5.880;2023-02-18T11:48:17;10.20;88.00
55711;DHT22;41612;51.994;5.880;2023-02-18T11:50:45;10.30;87.70
55711;DHT22;41612;51.994;5.880;2023-02-18T11:53:30;10.30;87.40
55711;DHT22;41612;51.994;5.880;2023-02-18T11:56:01;10.40;87.00
55711;DHT22;41612;51.994;5.880;2023-02-18T11:58:40;10.50;86.70
55711;DHT22;41612;51.994;5.880;2023-02-18T12:01:59;10.50;86.80
55711;DHT22;41612;51.994;5.880;2023-02-18T12:04:29;10.50;86.90
55711;DHT22;41612;51.994;5.880;2023-02-18T12:07:19;10.50;86.60
55711;DHT22;41612;51.994;5.880;2023-02-18T12:09:54;10.60;86.50
55711;DHT22;41612;51.994;5.880;2023-02-18T12:12:35;10.60;87.30
55711;DHT22;41612;51.994;5.880;2023-02-18T12:15:08;10.60;86.90
55711;DHT22;41612;51.994;5.880;2023-02-18T12:17:45;10.60;86.60
55711;DHT22;41612;51.994;5.880;2023-02-18T12:28:56;10.70;85.50
55711;DHT22;41612;51.994;5.880;2023-02-18T12:37:23;10.60;86.60
55711;DHT22;41612;51.994;5.880;2023-02-18T12:45:44;10.70;86.50
55711;DHT22;41612;51.994;5.880;2023-02-18T12:51:25;10.70;86.60
55711;DHT22;41612;51.994;5.880;2023-02-18T12:54:59;10.70;86.30
55711;DHT22;41612;51.994;5.880;2023-02-18T13:00:13;10.70;86.60
55711;DHT22;41612;51.994;5.880;2023-02-18T13:05:42;10.70;86.20
55711;DHT22;41612;51.994;5.880;2023-02-18T13:10:55;10.70;86.50
55711;DHT22;41612;51.994;5.880;2023-02-18T13:13:32;10.70;86.10
55711;DHT22;41612;51.994;5.880;2023-02-18T13:16:14;10.80;86.40
55711;DHT22;41612;51.994;5.880;2023-02-18T13:18:44;10.80;86.20
55711;DHT22;41612;51.994;5.880;2023-02-18T13:21:15;10.80;85.80
55711;DHT22;41612;51.994;5.880;2023-02-18T13:24:09;10.80;85.80
55711;DHT22;41612;51.994;5.880;2023-02-18T13:26:37;10.90;86.10
55711;DHT22;41612;51.994;5.880;2023-02-18T13:32:28;11.20;85.20
55711;DHT22;41612;51.994;5.880;2023-02-18T13:35:21;11.30;85.00
55711;DHT22;41612;51.994;5.880;2023-02-18T13:38:04;11.30;84.90
55711;DHT22;41612;51.994;5.880;2023-02-18T13:40:36;11.30;84.90
55711;DHT22;41612;51.994;5.880;2023-02-18T13:46:12;11.20;84.90
55711;DHT22;41612;51.994;5.880;2023-02-18T13:48:49;11.20;85.40
55711;DHT22;41612;51.994;5.880;2023-02-18T13:51:43;11.20;84.90
55711;DHT22;41612;51.994;5.880;2023-02-18T13:54:21;11.20;85.10
55711;DHT22;41612;51.994;5.880;2023-02-18T13:57:01;11.30;85.00
55711;DHT22;41612;51.994;5.880;2023-02-18T13:59:57;11.30;84.70
55711;DHT22;41612;51.994;5.880;2023-02-18T14:04:50;11.30;83.90
55711;DHT22;41612;51.994;5.880;2023-02-18T14:15:51;11.30;84.40
55711;DHT22;41612;51.994;5.880;2023-02-18T14:26:34;11.50;83.70
55711;DHT22;41612;51.994;5.880;2023-02-18T14:29:13;11.50;84.00
55711;DHT22;41612;51.994;5.880;2023-02-18T14:31:47;11.40;84.00
55711;DHT22;41612;51.994;5.880;2023-02-18T14:40:13;11.40;83.70
55711;DHT22;41612;51.994;5.880;2023-02-18T14:42:55;11.40;84.00
55711;DHT22;41612;51.994;5.880;2023-02-18T14:48:37;11.30;83.60
55711;DHT22;41612;51.994;5.880;2023-02-18T14:51:06;11.30;83.50
55711;DHT22;41612;51.994;5.880;2023-02-18T14:53:43;11.30;83.30
55711;DHT22;41612;51.994;5.880;2023-02-18T14:56:13;11.40;83.90
55711;DHT22;41612;51.994;5.880;2023-02-18T14:58:42;11.40;83.50
55711;DHT22;41612;51.994;5.880;2023-02-18T15:01:33;11.50;83.50
55711;DHT22;41612;51.994;5.880;2023-02-18T15:04:01;11.50;83.20
55711;DHT22;41612;51.994;5.880;2023-02-18T15:08:52;11.50;83.50
55711;DHT22;41612;51.994;5.880;2023-02-18T15:11:21;11.50;83.50
55711;DHT22;41612;51.994;5.880;2023-02-18T15:13:49;11.60;83.10
55711;DHT22;41612;51.994;5.880;2023-02-18T15:16:19;11.60;83.60
55711;DHT22;41612;51.994;5.880;2023-02-18T15:18:50;11.50;83.30
55711;DHT22;41612;51.994;5.880;2023-02-18T15:21:34;11.60;83.20
55711;DHT22;41612;51.994;5.880;2023-02-18T15:26:42;11.60;83.20
55711;DHT22;41612;51.994;5.880;2023-02-18T15:29:17;11.70;83.00
55711;DHT22;41612;51.994;5.880;2023-02-18T15:31:46;11.60;83.00
55711;DHT22;41612;51.994;5.880;2023-02-18T15:34:36;11.70;82.90
55711;DHT22;41612;51.994;5.880;2023-02-18T15:37:04;11.60;83.00
55711;DHT22;41612;51.994;5.880;2023-02-18T15:39:31;11.60;83.10
55711;DHT22;41612;51.994;5.880;2023-02-18T15:44:52;11.70;83.00
55711;DHT22;41612;51.994;5.880;2023-02-18T15:47:20;11.70;82.90
55711;DHT22;41612;51.994;5.880;2023-02-18T15:49:54;11.70;83.00
55711;DHT22;41612;51.994;5.880;2023-02-18T15:52:39;11.70;82.90
55711;DHT22;41612;51.994;5.880;2023-02-18T15:55:30;11.60;83.10
55711;DHT22;41612;51.994;5.880;2023-02-18T15:57:59;11.70;82.60
55711;DHT22;41612;51.994;5.880;2023-02-18T16:00:32;11.60;83.10
55711;DHT22;41612;51.994;5.880;2023-02-18T16:03:03;11.60;83.20
55711;DHT22;41612;51.994;5.880;2023-02-18T16:05:29;11.60;83.20
55711;DHT22;41612;51.994;5.880;2023-02-18T16:08:02;11.60;83.20
55711;DHT22;41612;51.994;5.880;2023-02-18T16:13:02;11.60;83.10
55711;DHT22;41612;51.994;5.880;2023-02-18T16:15:43;11.50;83.40
55711;DHT22;41612;51.994;5.880;2023-02-18T16:21:05;11.50;82.70
55711;DHT22;41612;51.994;5.880;2023-02-18T16:23:42;11.50;82.70
55711;DHT22;41612;51.994;5.880;2023-02-18T16:26:31;11.50;83.20
55711;DHT22;41612;51.994;5.880;2023-02-18T16:29:10;11.40;83.60
55711;DHT22;41612;51.994;5.880;2023-02-18T16:31:36;11.40;83.70
55711;DHT22;41612;51.994;5.880;2023-02-18T16:34:02;11.30;83.70
55711;DHT22;41612;51.994;5.880;2023-02-18T16:36:28;11.40;83.30
55711;DHT22;41612;51.994;5.880;2023-02-18T16:38:53;11.30;83.70
55711;DHT22;41612;51.994;5.880;2023-02-18T16:41:20;11.40;83.50
55711;DHT22;41612;51.994;5.880;2023-02-18T16:43:46;11.40;83.70
55711;DHT22;41612;51.994;5.880;2023-02-18T16:46:17;11.40;83.80
55711;DHT22;41612;51.994;5.880;2023-02-18T16:48:45;11.30;83.80
55711;DHT22;41612;51.994;5.880;2023-02-18T16:51:33;11.30;83.60
55711;DHT22;41612;51.994;5.880;2023-02-18T16:53:59;11.30;84.10
55711;DHT22;41612;51.994;5.880;2023-02-18T16:56:28;11.30;84.10
55711;DHT22;41612;51.994;5.880;2023-02-18T16:58:55;11.30;84.00
55711;DHT22;41612;51.994;5.880;2023-02-18T17:03:56;11.40;82.90
55711;DHT22;41612;51.994;5.880;2023-02-18T17:06:22;11.30;83.40
55711;DHT22;41612;51.994;5.880;2023-02-18T17:08:48;11.30;83.20
55711;DHT22;41612;51.994;5.880;2023-02-18T17:11:17;11.40;83.30
55711;DHT22;41612;51.994;5.880;2023-02-18T17:13:46;11.30;83.50
55711;DHT22;41612;51.994;5.880;2023-02-18T17:16:13;11.30;83.20
55711;DHT22;41612;51.994;5.880;2023-02-18T17:18:38;11.30;83.20
55711;DHT22;41612;51.994;5.880;2023-02-18T17:21:11;11.30;83.20
55711;DHT22;41612;51.994;5.880;2023-02-18T17:23:37;11.30;83.20
55711;DHT22;41612;51.994;5.880;2023-02-18T17:26:14;11.30;83.50
55711;DHT22;41612;51.994;5.880;2023-02-18T17:28:40;11.30;83.40
55711;DHT22;41612;51.994;5.880;2023-02-18T17:31:16;11.30;83.10
55711;DHT22;41612;51.994;5.880;2023-02-18T17:33:46;11.30;83.00
55711;DHT22;41612;51.994;5.880;2023-02-18T17:36:12;11.30;82.90
55711;DHT22;41612;51.994;5.880;2023-02-18T17:38:38;11.40;83.10
55711;DHT22;41612;51.994;5.880;2023-02-18T17:41:04;11.30;83.50
55711;DHT22;41612;51.994;5.880;2023-02-18T17:43:30;11.30;83.00
55711;DHT22;41612;51.994;5.880;2023-02-18T17:45:56;11.30;83.10
55711;DHT22;41612;51.994;5.880;2023-02-18T17:48:22;11.30;83.40
55711;DHT22;41612;51.994;5.880;2023-02-18T17:50:49;11.30;82.90
55711;DHT22;41612;51.994;5.880;2023-02-18T17:53:16;11.30;83.70
55711;DHT22;41612;51.994;5.880;2023-02-18T17:55:43;11.30;83.10
55711;DHT22;41612;51.994;5.880;2023-02-18T17:58:10;11.30;83.30
55711;DHT22;41612;51.994;5.880;2023-02-18T18:00:40;11.30;83.20